Terminal Aerodrome Forecast
Issued by NWS

Home | Current Version | Previous Version | Text Only | Print | Product List | Glossary On
Versions: 1 2 3 4 5 6 7 8 9 10 11 12
050
FTUS42 KGSP 082332
TAFGMU
TAF
KGMU 082332Z 0900/0924 26011KT P6SM BKN100
     FM090900 26007KT P6SM SCT080
     FM091500 26011G20KT P6SM BKN050=

USA.gov is the U.S. government's official web portal to all federal, state and local government web resources and services.